Jefferson City, Missouri
Current Conditions -  °F | °C
As of 5:53 AM on Friday 21 Nov 2014 (Local Time) from KJEF Reporting Station
Clear Clear  
Wind Chill: -8°   Ceiling: Unl
Heat Index: -4°   Visibility: 10mi
Dew Point: -8°   Wind: 7mph
Humidity: 72%   Direction: 90°E
Pressure: 30.33"   Gusts: NA
Location:  38.58°N, 92.18°W
Report Text: KJEF 211153Z 09006KT 10SM CLR M04/M08 A3033 RMK AO2 SLP266 T10391083 11039 21072 56001
Loading
Personal Weather Stations






























Interactive Weather Map New forecast layout! Learn more

10-Day Weather Forecast

Advertisements
Track Severe Weather on mobile